Time;durP1;ratioP1;P1;durP2;ratioP2;P2;SDS_P1;SDS_P2;PMS_P1;PMS_P2;Temp;Humidity;BMP_temperature;BMP_pressure;BME280_temperature;BME280_humidity;BME280_pressure;Samples;Min_cycle;Max_cycle;Signal;HPM_P1;HPM_P2
2022/09/18 09:13:49;;;;;;;14.95;2.08;;;;;;;20.58;100.00;99635.09;5090449;27;20401;-51
2022/09/18 09:16:25;;;;;;;11.00;1.80;;;;;;;20.80;100.00;99651.63;5090891;28;20047;-63
2022/09/18 09:18:59;;;;;;;9.57;2.08;;;;;;;20.85;100.00;99641.13;5090149;28;20051;-52
2022/09/18 09:21:49;;;;;;;6.00;1.70;;;;;;;20.95;100.00;99635.53;5088844;28;20408;-66
2022/09/18 09:24:30;;;;;;;12.57;2.10;;;;;;;21.07;100.00;99631.41;5089561;28;20036;-50
2022/09/18 09:27:02;;;;;;;8.60;2.00;;;;;;;21.16;100.00;99638.50;5089873;28;20059;-47
2022/09/18 09:29:37;;;;;;;8.48;2.45;;;;;;;21.27;100.00;99637.31;5090031;28;20463;-50
2022/09/18 09:32:13;;;;;;;9.98;2.42;;;;;;;21.31;100.00;99635.91;5088947;28;20040;-50
2022/09/18 09:34:46;;;;;;;6.88;2.47;;;;;;;21.35;100.00;99639.97;5090101;28;20044;-53
2022/09/18 09:37:19;;;;;;;7.05;2.15;;;;;;;21.28;100.00;99628.97;5089981;28;20071;-50
2022/09/18 09:39:55;;;;;;;8.38;2.30;;;;;;;21.27;100.00;99642.72;5089308;28;20485;-53
2022/09/18 09:42:26;;;;;;;7.28;1.83;;;;;;;21.25;100.00;99650.16;5089303;28;20048;-50
2022/09/18 09:45:01;;;;;;;7.90;2.15;;;;;;;21.25;100.00;99666.44;5089897;28;20085;-51
2022/09/18 09:47:38;;;;;;;9.07;1.75;;;;;;;21.28;100.00;99668.81;5089690;28;20040;-53
2022/09/18 09:50:19;;;;;;;7.88;2.03;;;;;;;21.25;100.00;99666.44;5089422;28;20085;-59
2022/09/18 09:52:47;;;;;;;21.25;2.67;;;;;;;21.26;100.00;99696.13;5088108;28;20052;-54
2022/09/18 09:55:21;;;;;;;5.15;1.55;;;;;;;21.31;100.00;99684.75;5088373;28;20140;-58
2022/09/18 09:58:02;;;;;;;11.57;1.83;;;;;;;21.30;100.00;99669.50;5089318;28;20345;-58
2022/09/18 10:00:37;;;;;;;4.22;1.60;;;;;;;21.29;100.00;99678.66;5089028;28;20064;-57
2022/09/18 10:03:35;;;;;;;4.63;1.65;;;;;;;21.25;100.00;99667.28;5088251;28;20052;-50
2022/09/18 10:06:11;;;;;;;6.65;1.38;;;;;;;21.26;100.00;99678.97;5089336;28;20036;-57
2022/09/18 10:08:46;;;;;;;6.03;1.30;;;;;;;21.24;100.00;99694.59;5087188;28;20044;-50
2022/09/18 10:11:16;;;;;;;6.22;1.17;;;;;;;21.21;100.00;99687.63;5087432;28;20094;-52
2022/09/18 10:13:50;;;;;;;8.85;1.30;;;;;;;21.20;100.00;99679.66;5087739;28;20055;-51
2022/09/18 10:16:23;;;;;;;6.70;1.55;;;;;;;21.19;100.00;99692.38;5089191;28;20047;-50
2022/09/18 10:18:51;;;;;;;5.50;1.20;;;;;;;21.18;100.00;99679.84;5087818;28;20064;-49
2022/09/18 10:21:23;;;;;;;5.03;1.25;;;;;;;21.19;100.00;99680.69;5087619;28;20500;-50
2022/09/18 10:23:58;;;;;;;4.82;1.30;;;;;;;21.19;100.00;99686.09;5080562;28;20054;-50
2022/09/18 10:26:31;;;;;;;4.10;1.42;;;;;;;21.19;100.00;99689.66;5075537;28;20055;-51
2022/09/18 10:29:01;;;;;;;6.05;1.20;;;;;;;21.18;100.00;99696.13;5075084;28;20094;-51
2022/09/18 10:31:46;;;;;;;3.97;1.55;;;;;;;21.19;100.00;99694.25;5073715;28;20048;-53
2022/09/18 10:34:34;;;;;;;3.17;1.20;;;;;;;21.20;100.00;99687.81;5075146;28;20040;-59
2022/09/18 10:37:03;;;;;;;2.90;1.20;;;;;;;21.20;100.00;99695.94;5074200;28;20133;-62
2022/09/18 10:39:33;;;;;;;10.27;1.10;;;;;;;21.16;100.00;99700.88;5074738;28;20417;-61
2022/09/18 10:42:04;;;;;;;5.50;1.23;;;;;;;21.13;100.00;99685.81;5075554;28;20041;-62
2022/09/18 10:44:37;;;;;;;5.93;1.40;;;;;;;21.15;100.00;99699.19;5075118;28;20124;-68
2022/09/18 10:47:09;;;;;;;6.97;1.25;;;;;;;21.17;100.00;99702.56;5074769;28;20044;-60
2022/09/18 10:49:49;;;;;;;3.67;1.05;;;;;;;21.17;100.00;99713.41;5074888;28;20048;-51
2022/09/18 10:52:27;;;;;;;4.28;1.02;;;;;;;21.17;100.00;99693.59;5075058;28;20058;-49
2022/09/18 10:55:11;;;;;;;4.60;1.05;;;;;;;21.16;100.00;99690.03;5073633;28;20041;-49
2022/09/18 10:57:42;;;;;;;5.00;1.10;;;;;;;21.17;100.00;99690.88;5073684;28;20048;-53
2022/09/18 11:00:33;;;;;;;4.57;1.10;;;;;;;21.20;100.00;99702.19;5073482;28;20059;-54
2022/09/18 11:03:16;;;;;;;3.95;1.05;;;;;;;21.22;100.00;99685.75;5072991;28;20057;-59
2022/09/18 11:05:50;;;;;;;5.67;1.00;;;;;;;21.21;100.00;99689.50;5074860;28;20472;-61
2022/09/18 11:08:22;;;;;;;3.10;0.95;;;;;;;21.22;100.00;99683.03;5074725;28;20119;-52
2022/09/18 11:11:00;;;;;;;5.30;1.00;;;;;;;21.21;100.00;99686.78;5074327;28;20055;-52
2022/09/18 11:13:30;;;;;;;4.78;1.20;;;;;;;21.20;100.00;99685.09;5072937;28;20056;-53
2022/09/18 11:16:04;;;;;;;2.92;0.95;;;;;;;21.21;100.00;99700.34;5073095;28;20401;-50
2022/09/18 11:18:34;;;;;;;7.63;1.50;;;;;;;21.21;100.00;99695.75;5074163;28;20147;-58
2022/09/18 11:21:06;;;;;;;3.72;0.93;;;;;;;21.22;100.00;99702.03;5073091;28;20500;-57
2022/09/18 11:23:36;;;;;;;2.15;1.10;;;;;;;21.23;100.00;99690.16;5073251;28;20056;-57
2022/09/18 11:26:17;;;;;;;3.22;0.90;;;;;;;21.21;100.00;99687.63;5072725;28;20485;-63
2022/09/18 11:29:01;;;;;;;2.30;0.80;;;;;;;21.22;100.00;99691.19;5074442;28;20437;-58
2022/09/18 11:31:40;;;;;;;2.45;0.90;;;;;;;21.19;100.00;99684.25;5074371;28;20045;-57
2022/09/18 11:34:30;;;;;;;4.95;1.10;;;;;;;21.17;100.00;99690.88;5073920;28;20082;-59
2022/09/18 11:37:02;;;;;;;4.82;1.08;;;;;;;21.14;100.00;99687.50;5071987;28;20059;-59
2022/09/18 11:39:36;;;;;;;3.47;1.00;;;;;;;21.17;100.00;99674.59;5072656;28;20077;-62
2022/09/18 11:42:10;;;;;;;4.53;1.17;;;;;;;21.15;100.00;99677.50;5073759;28;20489;-59
2022/09/18 11:44:39;;;;;;;2.47;0.90;;;;;;;21.15;100.00;99677.50;5072647;28;20056;-55
2022/09/18 11:47:27;;;;;;;2.70;0.77;;;;;;;21.14;100.00;99697.50;5072327;28;20402;-55
2022/09/18 11:50:08;;;;;;;5.47;1.30;;;;;;;21.00;100.00;99674.63;5073577;28;20045;-52
2022/09/18 11:52:43;;;;;;;7.55;1.52;;;;;;;21.03;100.00;99663.44;5073484;28;20053;-56
2022/09/18 11:55:21;;;;;;;45.88;6.05;;;;;;;21.06;100.00;99670.41;5072444;28;20048;-55
2022/09/18 11:57:53;;;;;;;26.67;4.10;;;;;;;21.07;100.00;99681.06;5072063;28;20408;-53
2022/09/18 12:00:32;;;;;;;28.80;4.20;;;;;;;21.05;100.00;99695.81;5071893;28;20063;-53
2022/09/18 12:03:15;;;;;;;36.83;4.88;;;;;;;21.00;100.00;99663.78;5072266;28;20098;-51
2022/09/18 12:05:52;;;;;;;21.83;3.50;;;;;;;20.98;100.00;99667.69;5073927;28;20052;-51
2022/09/18 12:08:29;;;;;;;26.38;3.97;;;;;;;20.94;100.00;99661.78;5073691;28;20477;-53
2022/09/18 12:11:08;;;;;;;30.67;4.35;;;;;;;20.91;100.00;99664.81;5073842;28;20044;-51
2022/09/18 12:13:52;;;;;;;31.05;4.18;;;;;;;20.90;100.00;99660.44;5074011;28;20052;-53
2022/09/18 12:16:28;;;;;;;23.60;3.95;;;;;;;20.88;100.00;99654.34;5072551;28;20055;-51
2022/09/18 12:19:03;;;;;;;26.42;4.05;;;;;;;20.86;100.00;99664.50;5074128;28;20477;-53
2022/09/18 12:21:42;;;;;;;23.05;4.10;;;;;;;20.86;100.00;99664.50;5073903;28;20041;-51
2022/09/18 12:24:15;;;;;;;22.00;3.80;;;;;;;20.85;100.00;99660.13;5072274;28;20059;-53
2022/09/18 12:26:55;;;;;;;22.42;3.60;;;;;;;20.84;100.00;99652.97;5071913;28;20051;-50
2022/09/18 12:29:38;;;;;;;23.98;3.80;;;;;;;20.82;100.00;99652.31;5073895;28;20048;-51
2022/09/18 12:32:26;;;;;;;17.15;3.90;;;;;;;20.81;100.00;99653.31;5073748;28;20044;-51
2022/09/18 12:35:02;;;;;;;17.38;3.50;;;;;;;20.79;100.00;99655.38;5073471;28;20050;-52
2022/09/18 12:37:48;;;;;;;21.23;3.42;;;;;;;20.78;100.00;99643.69;5072460;28;20429;-50
2022/09/18 12:40:36;;;;;;;21.65;3.55;;;;;;;20.78;100.00;99659.09;5073406;28;20123;-51
2022/09/18 12:43:21;;;;;;;17.67;3.25;;;;;;;20.75;100.00;99662.13;5072184;28;20106;-52
2022/09/18 12:46:15;;;;;;;20.85;3.38;;;;;;;20.74;100.00;99657.72;5073517;28;20041;-53
2022/09/18 12:49:00;;;;;;;18.30;3.15;;;;;;;20.71;100.00;99658.09;5073669;28;20040;-55
2022/09/18 12:51:39;;;;;;;17.20;3.38;;;;;;;20.73;100.00;99664.19;5072333;28;20467;-52
2022/09/18 12:54:31;;;;;;;19.13;3.00;;;;;;;20.71;100.00;99663.50;5073266;28;20123;-53
2022/09/18 12:57:16;;;;;;;12.48;2.80;;;;;;;20.70;100.00;99653.69;5071691;28;20044;-54
2022/09/18 12:59:54;;;;;;;11.85;2.38;;;;;;;20.70;100.00;99656.41;5073394;28;20120;-52
2022/09/18 13:02:32;;;;;;;16.38;3.00;;;;;;;20.70;100.00;99662.66;5073265;28;20443;-53
2022/09/18 13:05:05;;;;;;;15.27;2.65;;;;;;;20.69;100.00;99644.72;5073368;28;20113;-52
2022/09/18 13:07:37;;;;;;;16.17;2.70;;;;;;;20.69;100.00;99649.28;5073435;28;20048;-52
2022/09/18 13:10:15;;;;;;;12.35;3.00;;;;;;;20.69;100.00;99652.00;5072022;28;20057;-55
2022/09/18 13:12:50;;;;;;;13.27;3.15;;;;;;;20.69;100.00;99652.00;5071475;28;20049;-52
2022/09/18 13:15:22;;;;;;;15.43;2.92;;;;;;;20.69;100.00;99641.16;5071993;28;20059;-51
2022/09/18 13:17:54;;;;;;;10.48;2.58;;;;;;;20.67;100.00;99646.75;5073286;28;20454;-52
2022/09/18 13:20:24;;;;;;;;;;;;;;;20.67;100.00;99645.91;5072446;28;20048;-51
2022/09/18 13:22:54;;;;;;;17.40;3.10;;;;;;;20.71;100.00;99639.13;5071265;28;19927;-51
2022/09/18 13:25:34;;;;;;;21.13;3.22;;;;;;;20.77;100.00;99635.72;5071978;28;20480;-56
2022/09/18 13:28:07;;;;;;;14.43;2.63;;;;;;;20.82;100.00;99646.88;5071371;28;20041;-45
2022/09/18 13:30:35;;;;;;;13.27;2.70;;;;;;;20.85;100.00;99652.81;5070808;28;20053;-49
2022/09/18 13:33:04;;;;;;;13.15;2.83;;;;;;;20.90;100.00;99646.88;5071141;28;20127;-45
2022/09/18 13:35:35;;;;;;;15.63;2.90;;;;;;;20.93;100.00;99653.81;5070676;28;20052;-45
2022/09/18 13:38:14;;;;;;;12.50;2.42;;;;;;;20.94;100.00;99672.63;5072248;28;20052;-51
2022/09/18 13:40:46;;;;;;;10.27;2.45;;;;;;;20.97;100.00;99666.84;5070703;28;20049;-54
2022/09/18 13:43:22;;;;;;;10.15;2.50;;;;;;;20.97;100.00;99671.44;5072683;28;20062;-51
2022/09/18 13:45:51;;;;;;;14.82;2.40;;;;;;;20.96;100.00;99686.00;5070612;28;20048;-59
2022/09/18 13:48:24;;;;;;;15.02;2.22;;;;;;;20.96;100.00;99695.00;5072370;28;20098;-52
2022/09/18 13:50:57;;;;;;;12.40;2.10;;;;;;;20.97;100.00;99707.53;5072091;28;20401;-57
2022/09/18 13:53:40;;;;;;;13.25;2.45;;;;;;;20.97;100.00;99712.94;5072478;28;20075;-48
2022/09/18 13:56:12;;;;;;;16.20;2.30;;;;;;;20.97;100.00;99718.38;5070592;28;20048;-63
2022/09/18 13:58:51;;;;;;;13.73;2.50;;;;;;;20.96;100.00;99732.94;5073171;28;20040;-59
2022/09/18 14:01:58;;;;;;;9.52;2.15;;;;;;;20.97;100.00;99722.94;5074674;28;20087;-60
2022/09/18 14:04:49;;;;;;;9.73;2.05;;;;;;;20.96;100.00;99732.09;5074630;28;20056;-66
2022/09/18 14:07:57;;;;;;;15.27;2.35;;;;;;;20.97;100.00;99722.94;5074809;28;20059;-56
2022/09/18 14:10:30;;;;;;;9.38;1.73;;;;;;;20.95;100.00;99742.09;5073580;28;20048;-61
2022/09/18 14:13:08;;;;;;;9.32;2.25;;;;;;;20.94;100.00;99726.84;5054192;28;20122;-59
2022/09/18 14:15:36;;;;;;;9.05;1.88;;;;;;;20.95;100.00;99725.00;5055864;28;20045;-72
2022/09/18 14:18:13;;;;;;;8.30;1.88;;;;;;;20.95;100.00;99715.00;5055475;28;20243;-61
2022/09/18 14:20:50;;;;;;;5.45;1.52;;;;;;;20.96;100.00;99716.69;5053976;28;20048;-60
2022/09/18 14:23:52;;;;;;;9.20;2.03;;;;;;;20.98;100.00;99749.03;5087748;28;20049;-59
2022/09/18 14:26:58;;;;;;;9.77;2.05;;;;;;;20.98;100.00;99741.75;5062648;28;20086;-47
2022/09/18 14:29:32;;;;;;;8.23;1.90;;;;;;;20.97;100.00;99741.91;5075044;28;20545;-50
2022/09/18 14:32:01;;;;;;;;;;;;;;;20.97;100.00;99723.78;5075042;28;20044;-50
2022/09/18 14:34:37;;;;;;;13.85;1.75;;;;;;;20.99;100.00;99727.16;5074080;28;19924;-52
2022/09/18 14:37:31;;;;;;;10.73;1.80;;;;;;;21.01;100.00;99745.97;5074303;28;20076;-48
2022/09/18 14:40:18;;;;;;;12.35;1.60;;;;;;;21.01;100.00;99725.13;5062491;28;20044;-53
2022/09/18 14:42:47;;;;;;;8.27;1.80;;;;;;;21.02;100.00;99736.81;5074112;28;20055;-62
2022/09/18 14:45:24;;;;;;;6.75;1.60;;;;;;;20.91;100.00;99719.03;5074258;28;20049;-58
2022/09/18 14:47:54;;;;;;;17.92;2.33;;;;;;;20.81;100.00;99746.31;5073796;28;20052;-62
2022/09/18 14:50:35;;;;;;;14.32;1.73;;;;;;;20.84;100.00;99745.13;5075030;28;20053;-64
2022/09/18 14:53:22;;;;;;;11.00;1.80;;;;;;;20.86;100.00;99753.97;5075324;28;20118;-57
2022/09/18 14:55:55;;;;;;;7.22;1.38;;;;;;;20.88;100.00;99751.91;5073553;28;20048;-53
2022/09/18 14:58:28;;;;;;;6.57;1.33;;;;;;;20.89;100.00;99737.34;5073801;28;20044;-58
2022/09/18 15:00:57;;;;;;;4.97;1.30;;;;;;;20.90;100.00;99732.78;5074893;28;20051;-49
2022/09/18 15:03:29;;;;;;;6.90;1.50;;;;;;;20.91;100.00;99735.31;5075032;28;20617;-57
2022/09/18 15:06:08;;;;;;;4.70;1.48;;;;;;;20.92;100.00;99742.41;5073911;28;20464;-51
2022/09/18 15:08:37;;;;;;;7.93;1.70;;;;;;;20.95;100.00;99762.94;5073878;28;20048;-50
2022/09/18 15:11:06;;;;;;;7.65;1.60;;;;;;;20.97;100.00;99750.06;5093900;28;20051;-51
2022/09/18 15:13:37;;;;;;;13.45;2.30;;;;;;;20.94;100.00;99740.41;5094261;28;20131;-49
2022/09/18 15:16:07;;;;;;;16.30;2.20;;;;;;;20.97;100.00;99734.63;5093884;28;20048;-46
2022/09/18 15:18:41;;;;;;;13.23;1.95;;;;;;;20.95;100.00;99742.09;5081641;28;20058;-46
2022/09/18 15:21:22;;;;;;;23.40;2.33;;;;;;;20.91;100.00;99729.88;5073875;28;20448;-46
2022/09/18 15:23:51;;;;;;;11.95;2.22;;;;;;;20.88;100.00;99734.81;5074699;28;20044;-47
2022/09/18 15:26:24;;;;;;;15.13;2.15;;;;;;;20.85;100.00;99728.72;5074607;28;20044;-46
2022/09/18 15:28:54;;;;;;;10.88;2.25;;;;;;;20.83;100.00;99732.59;5074662;28;20036;-46
2022/09/18 15:31:29;;;;;;;8.32;1.90;;;;;;;20.80;100.00;99731.09;5072185;28;20413;-47
2022/09/18 15:34:02;;;;;;;11.32;2.13;;;;;;;20.80;100.00;99741.09;5066421;28;20398;-45
2022/09/18 15:36:33;;;;;;;11.45;1.70;;;;;;;20.79;100.00;99756.50;5060956;28;20075;-46
2022/09/18 15:39:04;;;;;;;15.15;2.03;;;;;;;20.78;100.00;99735.00;5073677;28;20064;-45
2022/09/18 15:41:40;;;;;;;10.43;1.77;;;;;;;20.77;100.00;99733.31;5074709;28;20090;-45
2022/09/18 15:45:08;;;;;;;6.85;1.83;;;;;;;20.75;100.00;99736.19;5074802;28;20455;-46
2022/09/18 15:47:39;;;;;;;8.82;1.85;;;;;;;20.74;100.00;99739.03;5073576;28;20055;-46
2022/09/18 15:50:34;;;;;;;7.82;1.77;;;;;;;20.73;100.00;99731.94;5073343;28;20056;-45
2022/09/18 15:53:28;;;;;;;7.43;1.50;;;;;;;20.72;100.00;99746.50;5072432;28;20127;-46
2022/09/18 15:56:02;;;;;;;9.18;1.50;;;;;;;20.70;100.00;99752.09;5074105;28;20048;-46
2022/09/18 15:58:46;;;;;;;8.55;1.90;;;;;;;20.71;100.00;99750.22;5080026;28;20063;-46
2022/09/18 16:01:34;;;;;;;10.65;1.80;;;;;;;20.74;100.00;99756.16;5063547;28;20049;-46
2022/09/18 16:04:16;;;;;;;7.22;1.73;;;;;;;20.79;100.00;99755.66;5106310;28;20401;-46
2022/09/18 16:06:55;;;;;;;9.55;1.70;;;;;;;20.80;100.00;99760.91;5081292;28;20044;-47
2022/09/18 16:09:34;;;;;;;7.80;1.70;;;;;;;20.85;100.00;99746.84;5070024;28;20044;-50
2022/09/18 16:12:22;;;;;;;6.00;1.60;;;;;;;20.91;100.00;99757.00;5073617;28;20057;-50
2022/09/18 16:15:00;;;;;;;13.13;2.20;;;;;;;20.93;100.00;99782.06;5072285;28;20527;-56
2022/09/18 16:17:52;;;;;;;10.20;2.03;;;;;;;20.97;100.00;99779.88;5073167;28;20040;-51
2022/09/18 16:20:35;;;;;;;6.82;1.65;;;;;;;20.97;100.00;99778.00;5071440;28;20114;-50
2022/09/18 16:23:13;;;;;;;6.70;1.63;;;;;;;20.94;100.00;99772.94;5071926;28;20068;-48
2022/09/18 16:25:42;;;;;;;3.88;1.40;;;;;;;20.91;100.00;99794.09;5071859;28;20048;-50
2022/09/18 16:28:22;;;;;;;4.45;1.40;;;;;;;20.88;100.00;99784.44;5071469;28;20504;-49
2022/09/18 16:30:52;;;;;;;6.97;1.67;;;;;;;20.88;100.00;99789.03;5073430;28;20083;-50
2022/09/18 16:33:22;;;;;;;6.80;1.42;;;;;;;20.84;100.00;99789.38;5071788;28;20088;-50
2022/09/18 16:35:56;;;;;;;4.90;1.30;;;;;;;20.81;100.00;99789.69;5071918;28;20053;-50
2022/09/18 16:38:25;;;;;;;10.98;1.77;;;;;;;20.80;100.00;99808.84;5065515;28;20045;-50
2022/09/18 16:40:54;;;;;;;5.05;1.27;;;;;;;20.76;100.00;99791.22;5072649;28;20544;-50
2022/09/18 16:43:23;;;;;;;5.38;1.48;;;;;;;20.74;100.00;99790.53;5071842;28;20105;-50
2022/09/18 16:45:51;;;;;;;5.25;1.48;;;;;;;20.72;100.00;99785.28;5071852;28;20420;-50
2022/09/18 16:48:19;;;;;;;3.78;1.33;;;;;;;20.71;100.00;99788.16;5072890;28;20044;-49
2022/09/18 16:50:48;;;;;;;5.25;1.38;;;;;;;20.70;100.00;99800.03;5071709;28;20044;-49
2022/09/18 16:53:17;;;;;;;4.30;1.75;;;;;;;20.68;100.00;99794.78;5071627;28;20059;-51
2022/09/18 16:55:48;;;;;;;5.97;1.30;;;;;;;20.64;100.00;99779.00;5087124;28;20054;-50
2022/09/18 16:58:18;;;;;;;4.70;1.20;;;;;;;20.47;100.00;99786.28;5055593;28;20115;-48
2022/09/18 17:00:48;;;;;;;2.72;1.08;;;;;;;20.31;100.00;99789.78;5056850;28;20047;-48
2022/09/18 17:03:17;;;;;;;4.32;1.10;;;;;;;20.18;100.00;99792.13;5072714;28;20049;-48
2022/09/18 17:05:46;;;;;;;4.65;1.00;;;;;;;20.08;100.00;99791.41;5067960;28;20543;-50
2022/09/18 17:08:14;;;;;;;3.15;1.20;;;;;;;20.10;100.00;99790.22;5069560;28;20044;-48
2022/09/18 17:10:44;;;;;;;8.32;1.23;;;;;;;20.13;100.00;99794.47;5072411;28;20037;-48
2022/09/18 17:13:12;;;;;;;5.60;1.38;;;;;;;20.17;100.00;99790.41;5071375;28;20555;-47
2022/09/18 17:15:41;;;;;;;6.25;1.20;;;;;;;20.20;100.00;99785.53;5071905;28;20485;-58
2022/09/18 17:18:09;;;;;;;3.78;1.10;;;;;;;20.27;100.00;99783.00;5071323;28;20053;-57
2022/09/18 17:20:40;;;;;;;4.70;1.15;;;;;;;20.34;100.00;99791.28;5071685;28;20457;-47
2022/09/18 17:23:08;;;;;;;5.90;1.23;;;;;;;20.37;100.00;99789.13;5071428;28;20045;-55
2022/09/18 17:25:36;;;;;;;7.50;1.25;;;;;;;20.42;100.00;99789.47;5070027;28;20045;-51
2022/09/18 17:28:06;;;;;;;6.07;1.23;;;;;;;20.47;100.00;99792.56;5072104;28;20036;-57
2022/09/18 17:30:35;;;;;;;6.20;1.27;;;;;;;20.50;100.00;99794.91;5070689;28;20131;-50
2022/09/18 17:33:03;;;;;;;4.80;1.23;;;;;;;20.52;100.00;99801.00;5072983;28;20044;-48
2022/09/18 17:35:31;;;;;;;6.15;1.17;;;;;;;20.51;100.00;99793.91;5075307;28;20098;-51
2022/09/18 17:37:59;;;;;;;6.13;1.38;;;;;;;20.47;100.00;99797.97;5074963;28;20049;-49
2022/09/18 17:40:30;;;;;;;3.85;1.30;;;;;;;20.41;100.00;99798.59;5075284;28;20045;-49
2022/09/18 17:42:58;;;;;;;6.15;1.02;;;;;;;20.36;100.00;99800.09;5076741;28;20404;-50
2022/09/18 17:45:28;;;;;;;3.58;1.08;;;;;;;20.27;100.00;99808.22;5076329;28;20036;-49
2022/09/18 17:47:56;;;;;;;4.95;1.38;;;;;;;20.22;100.00;99804.31;5075150;28;20049;-49
2022/09/18 17:50:29;;;;;;;3.60;1.10;;;;;;;20.19;100.00;99801.94;5074989;28;20045;-50
2022/09/18 17:52:57;;;;;;;4.00;1.20;;;;;;;20.20;100.00;99809.88;5075194;28;20417;-53
2022/09/18 17:55:27;;;;;;;3.83;1.27;;;;;;;20.21;100.00;99818.88;5076330;28;20041;-52
2022/09/18 17:57:55;;;;;;;5.10;1.23;;;;;;;20.22;100.00;99810.56;5074651;28;20068;-53
2022/09/18 18:00:26;;;;;;;4.10;1.52;;;;;;;20.22;100.00;99815.13;5076482;28;20143;-52
2022/09/18 18:02:56;;;;;;;6.00;1.40;;;;;;;20.23;100.00;99812.25;5076237;28;20489;-52
2022/09/18 18:05:25;;;;;;;6.28;1.40;;;;;;;20.23;100.00;99825.81;5076130;28;20460;-51
2022/09/18 18:07:53;;;;;;;4.07;1.23;;;;;;;20.22;100.00;99831.38;5075046;28;20044;-53
2022/09/18 18:10:23;;;;;;;7.47;1.40;;;;;;;20.22;100.00;99828.69;5074468;28;20098;-51
2022/09/18 18:12:51;;;;;;;5.28;1.23;;;;;;;20.24;100.00;99829.34;5074373;28;20413;-53
2022/09/18 18:15:20;;;;;;;4.78;1.38;;;;;;;20.23;100.00;99825.81;5076038;28;20079;-54
2022/09/18 18:17:48;;;;;;;4.13;1.30;;;;;;;20.23;100.00;99830.38;5075726;28;20094;-53
2022/09/18 18:20:20;;;;;;;3.45;1.17;;;;;;;20.22;100.00;99836.81;5074377;28;20507;-52
2022/09/18 18:22:48;;;;;;;3.00;1.20;;;;;;;20.21;100.00;99837.81;5075830;28;20040;-52
2022/09/18 18:25:16;;;;;;;3.60;1.10;;;;;;;20.24;100.00;99841.03;5075587;28;20463;-52
2022/09/18 18:27:45;;;;;;;5.57;1.50;;;;;;;20.26;100.00;99841.72;5075540;28;20086;-52
2022/09/18 18:30:15;;;;;;;4.10;1.38;;;;;;;20.30;100.00;99839.53;5075758;28;20123;-48
2022/09/18 18:32:43;;;;;;;5.38;1.10;;;;;;;20.33;100.00;99843.78;5074188;28;20048;-49
2022/09/18 18:35:12;;;;;;;4.18;1.13;;;;;;;20.36;100.00;99849.69;5074523;28;20045;-50
2022/09/18 18:37:42;;;;;;;5.07;1.42;;;;;;;20.38;100.00;99847.69;5074842;28;20115;-47
2022/09/18 18:40:10;;;;;;;6.78;1.58;;;;;;;20.41;100.00;99858.19;5075758;28;20098;-48
2022/09/18 18:42:39;;;;;;;3.78;1.20;;;;;;;20.44;100.00;99846.19;5075429;28;20044;-51
2022/09/18 18:45:09;;;;;;;3.65;1.17;;;;;;;20.45;100.00;99848.75;5073949;28;20048;-47
2022/09/18 18:47:38;;;;;;;5.80;1.17;;;;;;;20.44;100.00;99841.63;5073993;28;20514;-55
2022/09/18 18:50:13;;;;;;;2.33;0.90;;;;;;;20.47;100.00;99840.47;5075211;28;20053;-50
2022/09/18 18:52:44;;;;;;;3.95;1.23;;;;;;;20.48;100.00;99845.72;5074026;28;20052;-48
2022/09/18 18:55:15;;;;;;;4.32;1.42;;;;;;;20.50;100.00;99840.97;5075527;28;20079;-46
2022/09/18 18:57:43;;;;;;;5.28;1.23;;;;;;;20.50;100.00;99849.09;5069212;28;20122;-45
2022/09/18 19:00:13;;;;;;;5.68;1.23;;;;;;;20.52;100.00;99848.94;5056166;28;20135;-51
2022/09/18 19:02:44;;;;;;;2.90;0.82;;;;;;;20.53;100.00;99856.88;5053547;28;20132;-48
2022/09/18 19:05:21;;;;;;;3.10;1.10;;;;;;;20.54;100.00;99855.88;5055209;28;20532;-49
2022/09/18 19:07:52;;;;;;;3.00;1.00;;;;;;;20.55;100.00;99856.72;5061354;28;20052;-51
2022/09/18 19:10:22;;;;;;;4.32;1.08;;;;;;;20.57;100.00;99852.00;5073350;28;20045;-50
2022/09/18 19:12:56;;;;;;;2.35;1.10;;;;;;;20.58;100.00;99849.13;5073425;28;20053;-55
2022/09/18 19:15:29;;;;;;;2.88;1.20;;;;;;;20.59;100.00;99847.25;5074398;28;20041;-50
2022/09/18 19:18:15;;;;;;;2.22;0.98;;;;;;;20.60;100.00;99843.53;5074151;28;20068;-45
2022/09/18 19:20:52;;;;;;;5.45;1.38;;;;;;;20.62;100.00;99843.38;5073577;28;20044;-55
2022/09/18 19:23:22;;;;;;;6.75;1.45;;;;;;;20.57;100.00;99841.16;5074768;28;20064;-57
2022/09/18 19:25:51;;;;;;;4.43;1.05;;;;;;;20.52;100.00;99844.38;5072943;28;20106;-55
2022/09/18 19:28:19;;;;;;;7.50;1.50;;;;;;;20.47;100.00;99838.63;5074287;28;20488;-45
2022/09/18 19:30:52;;;;;;;6.38;1.17;;;;;;;20.49;100.00;99849.28;5072910;28;20493;-54
2022/09/18 19:33:21;;;;;;;9.52;1.10;;;;;;;20.50;100.00;99840.13;5074335;28;20040;-50
2022/09/18 19:35:50;;;;;;;3.50;1.08;;;;;;;20.50;100.00;99850.97;5074248;28;20497;-49
2022/09/18 19:38:19;;;;;;;4.65;1.20;;;;;;;20.51;100.00;99844.53;5073730;28;20432;-50
2022/09/18 19:40:54;;;;;;;4.60;1.20;;;;;;;20.53;100.00;99851.47;5074413;28;20048;-51
2022/09/18 19:43:29;;;;;;;4.35;1.00;;;;;;;20.56;100.00;99844.91;5073169;28;20489;-55
2022/09/18 19:45:58;;;;;;;5.18;1.17;;;;;;;20.58;100.00;99846.41;5074097;28;20079;-55
2022/09/18 19:48:27;;;;;;;4.13;1.00;;;;;;;20.61;100.00;99847.09;5072268;28;20052;-55
2022/09/18 19:50:56;;;;;;;3.80;1.35;;;;;;;20.62;100.00;99851.50;5074129;28;20079;-51
2022/09/18 19:53:25;;;;;;;2.97;1.20;;;;;;;20.62;100.00;99849.63;5073662;28;20044;-47
2022/09/18 19:55:55;;;;;;;4.45;1.25;;;;;;;20.63;100.00;99851.31;5073074;28;20143;-47
2022/09/18 19:58:23;;;;;;;4.45;1.27;;;;;;;20.64;100.00;99844.03;5052248;28;20111;-49
2022/09/18 20:00:53;;;;;;;4.95;1.02;;;;;;;20.65;100.00;99860.13;5052469;28;20059;-45
2022/09/18 20:03:22;;;;;;;2.72;1.00;;;;;;;20.65;100.00;99848.44;5053680;28;20045;-46
2022/09/18 20:05:50;;;;;;;4.82;1.17;;;;;;;20.64;100.00;99842.19;5052137;28;20049;-45
2022/09/18 20:08:18;;;;;;;2.72;1.00;;;;;;;20.66;100.00;99856.44;5064952;28;20048;-45
2022/09/18 20:10:47;;;;;;;6.65;1.30;;;;;;;20.66;100.00;99844.75;5073472;28;20048;-48
2022/09/18 20:13:19;;;;;;;3.75;1.33;;;;;;;20.66;100.00;99840.16;5073223;28;20060;-55
2022/09/18 20:15:58;;;;;;;6.00;1.20;;;;;;;20.67;100.00;99835.59;5073422;28;20115;-53
2022/09/18 20:18:26;;;;;;;7.18;1.48;;;;;;;20.68;100.00;99832.72;5071109;28;20044;-53
